createdAt,value
2019-02-28T00:00:55.956Z,39.19
2019-02-28T00:03:22.461Z,39.02
2019-02-28T00:05:48.736Z,39.42
2019-02-28T00:08:16.005Z,39.54
2019-02-28T00:10:42.119Z,39.36
2019-02-28T00:13:08.338Z,39.52
2019-02-28T00:15:34.537Z,40.36
2019-02-28T00:18:00.743Z,40.18
2019-02-28T00:20:29.151Z,40.21
2019-02-28T00:22:55.012Z,40.37
2019-02-28T00:25:21.155Z,40.02
2019-02-28T00:27:47.412Z,40.05
2019-02-28T00:30:14.789Z,39.88
2019-02-28T00:32:40.947Z,39.83
2019-02-28T00:35:12.799Z,40.19
2019-02-28T00:37:35.782Z,39.71
2019-02-28T00:40:02.300Z,39.95
2019-02-28T00:42:29.737Z,39.57
2019-02-28T00:44:55.895Z,39.39
2019-02-28T00:47:22.180Z,39.39
2019-02-28T00:49:48.468Z,39.02
2019-02-28T00:52:14.698Z,39.21
2019-02-28T00:54:44.348Z,38.95
2019-02-28T00:57:09.934Z,38.74
2019-02-28T00:59:36.218Z,38.77
2019-02-28T01:02:02.625Z,38.56
2019-02-28T01:04:30.028Z,38.66
2019-02-28T01:06:56.952Z,38.63
2019-02-28T01:09:23.098Z,38.53
2019-02-28T01:11:49.300Z,38.30
2019-02-28T01:14:15.564Z,38.18
2019-02-28T01:16:41.790Z,38.36
2019-02-28T01:19:09.070Z,38.01
2019-02-28T01:21:36.134Z,38.14
2019-02-28T01:24:02.315Z,37.98
2019-02-28T01:26:30.521Z,37.78
2019-02-28T01:29:01.525Z,37.65
2019-02-28T01:31:24.822Z,37.88
2019-02-28T01:33:51.039Z,37.39
2019-02-28T01:36:17.140Z,37.54
2019-02-28T01:38:44.525Z,37.35
2019-02-28T01:41:11.186Z,37.08
2019-02-28T01:43:38.167Z,37.23
2019-02-28T01:46:04.520Z,37.03
2019-02-28T01:48:30.716Z,36.90
2019-02-28T01:50:56.833Z,36.83
2019-02-28T01:53:23.056Z,36.98
2019-02-28T01:55:49.179Z,37.01
2019-02-28T01:58:16.874Z,37.01
2019-02-28T02:00:43.484Z,37.05
2019-02-28T02:03:10.196Z,36.97
2019-02-28T02:05:36.415Z,37.03
2019-02-28T02:08:06.538Z,36.66
2019-02-28T02:10:31.015Z,36.63
2019-02-28T02:12:57.186Z,36.28
2019-02-28T02:15:23.410Z,36.09
2019-02-28T02:17:49.647Z,35.79
2019-02-28T02:20:16.081Z,36.17
2019-02-28T02:22:44.613Z,36.32
2019-02-28T02:25:10.913Z,36.34
2019-02-28T02:27:37.342Z,36.49
2019-02-28T02:30:16.423Z,36.57
2019-02-28T02:32:43.808Z,36.46
2019-02-28T02:35:10.272Z,36.43
2019-02-28T02:37:36.650Z,36.40
2019-02-28T02:40:09.403Z,36.48
2019-02-28T02:42:35.625Z,36.59
2019-02-28T02:45:04.931Z,36.78
2019-02-28T02:47:32.477Z,36.70
2019-02-28T02:49:58.254Z,36.72
2019-02-28T02:52:29.981Z,36.85
2019-02-28T02:54:53.024Z,37.02
2019-02-28T02:57:19.436Z,36.85
2019-02-28T02:59:45.541Z,36.83
2019-02-28T03:02:11.857Z,37.00
2019-02-28T03:04:38.011Z,36.99
2019-02-28T03:07:04.407Z,37.24
2019-02-28T03:09:30.658Z,37.27
2019-02-28T03:11:57.725Z,37.33
2019-02-28T03:14:24.956Z,37.46
2019-02-28T03:16:51.054Z,37.58
2019-02-28T03:19:17.326Z,37.62
2019-02-28T03:21:47.762Z,37.74
2019-02-28T03:24:15.206Z,37.72
2019-02-28T03:26:41.895Z,37.64
2019-02-28T03:29:08.937Z,37.61
2019-02-28T03:31:35.364Z,37.58
2019-02-28T03:34:10.039Z,37.62
2019-02-28T03:36:30.032Z,37.64
2019-02-28T03:38:56.411Z,37.58
2019-02-28T03:41:22.712Z,37.63
2019-02-28T03:43:48.931Z,37.73
2019-02-28T03:46:15.233Z,37.88
2019-02-28T03:48:41.576Z,38.03
2019-02-28T03:51:07.705Z,38.12
2019-02-28T03:53:33.913Z,38.25
2019-02-28T03:56:00.082Z,38.45
2019-02-28T03:58:26.264Z,38.53
2019-02-28T04:00:52.629Z,38.55
2019-02-28T04:03:19.018Z,38.70
2019-02-28T04:05:45.359Z,38.85
2019-02-28T04:08:11.528Z,38.94
2019-02-28T04:10:37.823Z,38.95
2019-02-28T04:13:04.004Z,39.08
2019-02-28T04:15:30.316Z,39.20
2019-02-28T04:17:57.728Z,39.27
2019-02-28T04:20:23.986Z,39.46
2019-02-28T04:22:50.370Z,39.57
2019-02-28T04:25:22.833Z,39.66
2019-02-28T04:27:44.722Z,39.75
2019-02-28T04:30:12.071Z,39.80
2019-02-28T04:32:38.304Z,39.94
2019-02-28T04:35:04.735Z,39.95
2019-02-28T04:37:30.926Z,40.04
2019-02-28T04:39:57.195Z,40.20
2019-02-28T04:42:23.414Z,40.26
2019-02-28T04:44:51.956Z,40.34
2019-02-28T04:47:17.694Z,40.43
2019-02-28T04:49:43.943Z,40.53
2019-02-28T04:52:11.769Z,40.58
2019-02-28T04:54:38.225Z,40.66
2019-02-28T04:57:04.440Z,40.73
2019-02-28T04:59:31.560Z,40.88
2019-02-28T05:01:58.827Z,41.03
2019-02-28T05:04:25.007Z,41.13
2019-02-28T05:06:52.165Z,41.14
2019-02-28T05:09:19.254Z,41.18
2019-02-28T05:11:45.505Z,41.24
2019-02-28T05:14:11.607Z,41.36
2019-02-28T05:16:37.814Z,41.43
2019-02-28T05:19:04.019Z,41.54
2019-02-28T05:21:30.273Z,41.57
2019-02-28T05:23:56.398Z,41.64
2019-02-28T05:26:23.508Z,41.72
2019-02-28T05:28:50.703Z,41.88
2019-02-28T05:31:16.860Z,41.92
2019-02-28T05:33:44.135Z,41.96
2019-02-28T05:36:10.288Z,41.99
2019-02-28T05:38:36.399Z,42.04
2019-02-28T05:41:02.633Z,42.18
2019-02-28T05:43:29.190Z,42.36
2019-02-28T05:45:56.963Z,42.47
2019-02-28T05:48:23.199Z,42.55
2019-02-28T05:50:52.821Z,42.57
2019-02-28T05:53:17.419Z,42.60
2019-02-28T05:55:44.686Z,42.71
2019-02-28T05:58:10.923Z,42.75
2019-02-28T06:00:37.777Z,43.04
2019-02-28T06:03:04.065Z,43.07
2019-02-28T06:05:30.213Z,43.15
2019-02-28T06:07:56.415Z,43.12
2019-02-28T06:10:24.673Z,43.26
2019-02-28T06:12:51.796Z,43.30
2019-02-28T06:15:18.069Z,43.52
2019-02-28T06:17:44.315Z,43.57
2019-02-28T06:20:11.169Z,43.71
2019-02-28T06:22:37.559Z,44.07
2019-02-28T06:25:06.301Z,44.33
2019-02-28T06:27:41.195Z,44.24
2019-02-28T06:30:00.700Z,44.36
2019-02-28T06:32:27.438Z,44.50
2019-02-28T06:34:54.721Z,44.62
2019-02-28T06:37:20.869Z,44.69
2019-02-28T06:39:47.079Z,44.66
2019-02-28T06:42:13.260Z,44.71
2019-02-28T06:44:39.420Z,44.73
2019-02-28T06:47:05.668Z,44.75
2019-02-28T06:49:32.041Z,44.75
2019-02-28T06:51:58.237Z,44.79
2019-02-28T06:54:24.486Z,44.80
2019-02-28T06:56:54.004Z,44.81
2019-02-28T06:59:18.870Z,45.20
2019-02-28T07:01:45.165Z,45.30
2019-02-28T07:04:14.442Z,45.25
2019-02-28T07:06:39.533Z,45.37
2019-02-28T07:09:05.818Z,45.40
2019-02-28T07:11:32.797Z,45.43
2019-02-28T07:13:59.012Z,45.58
2019-02-28T07:16:25.245Z,45.61
2019-02-28T07:18:53.793Z,45.80
2019-02-28T07:21:19.594Z,45.77
2019-02-28T07:23:45.830Z,45.76
2019-02-28T07:26:11.929Z,45.95
2019-02-28T07:28:38.238Z,45.95
2019-02-28T07:31:04.424Z,46.13
2019-02-28T07:33:30.626Z,46.17
2019-02-28T07:35:56.731Z,46.29
2019-02-28T07:38:25.638Z,46.24
2019-02-28T07:40:51.008Z,46.28
2019-02-28T07:43:17.189Z,46.34
2019-02-28T07:45:43.369Z,46.50
2019-02-28T07:48:09.588Z,46.59
2019-02-28T07:50:35.881Z,46.40
2019-02-28T07:53:02.161Z,46.55
2019-02-28T07:55:30.476Z,46.36
2019-02-28T07:57:56.755Z,46.36
2019-02-28T08:00:24.041Z,46.29
2019-02-28T08:02:50.164Z,46.07
2019-02-28T08:05:16.802Z,46.07
2019-02-28T08:07:43.077Z,46.28
2019-02-28T08:10:18.473Z,46.38
2019-02-28T08:12:44.758Z,46.43
2019-02-28T08:15:20.974Z,46.35
2019-02-28T08:17:45.007Z,46.21
2019-02-28T08:20:11.512Z,46.15
2019-02-28T08:22:37.940Z,46.36
2019-02-28T08:25:08.755Z,46.22
2019-02-28T08:27:35.188Z,46.14
2019-02-28T08:30:01.367Z,46.26
2019-02-28T08:32:28.117Z,46.25
2019-02-28T08:34:55.587Z,46.20
2019-02-28T08:37:24.652Z,46.13
2019-02-28T08:39:50.971Z,46.03
2019-02-28T08:42:17.064Z,46.29
2019-02-28T08:44:43.294Z,46.27
2019-02-28T08:47:09.417Z,46.14
2019-02-28T08:49:42.179Z,46.23
2019-02-28T08:52:05.622Z,46.16
2019-02-28T08:54:31.991Z,46.14
2019-02-28T08:56:58.217Z,46.30
2019-02-28T08:59:24.441Z,46.00
2019-02-28T09:01:50.567Z,46.20
2019-02-28T09:04:16.811Z,46.03
2019-02-28T09:06:42.954Z,45.99
2019-02-28T09:09:09.629Z,45.81
2019-02-28T09:11:35.858Z,45.62
2019-02-28T09:14:02.142Z,45.46
2019-02-28T09:16:28.695Z,45.80
2019-02-28T09:19:00.482Z,45.43
2019-02-28T09:21:22.979Z,45.48
2019-02-28T09:23:49.131Z,45.50
2019-02-28T09:26:15.555Z,44.86
2019-02-28T09:28:44.356Z,44.52
2019-02-28T09:31:10.040Z,44.44
2019-02-28T09:33:36.206Z,44.61
2019-02-28T09:36:02.613Z,43.61
2019-02-28T09:38:30.099Z,43.78
2019-02-28T09:40:56.372Z,43.50
2019-02-28T09:43:23.843Z,43.31
2019-02-28T09:45:51.036Z,43.16
2019-02-28T09:48:17.213Z,42.44
2019-02-28T09:50:43.340Z,42.00
2019-02-28T09:53:15.537Z,41.94
2019-02-28T09:55:40.003Z,42.03
2019-02-28T09:58:06.118Z,41.26
2019-02-28T10:00:33.464Z,41.68
2019-02-28T10:02:59.569Z,41.12
2019-02-28T10:05:25.912Z,40.73
2019-02-28T10:07:52.308Z,40.48
2019-02-28T10:10:22.007Z,40.23
2019-02-28T10:12:48.530Z,40.58
2019-02-28T10:15:16.801Z,40.73
2019-02-28T10:17:43.110Z,40.53
2019-02-28T10:20:16.373Z,40.12
2019-02-28T10:22:44.361Z,39.75
2019-02-28T10:25:13.365Z,39.49
2019-02-28T10:27:39.790Z,39.37
2019-02-28T10:30:18.173Z,39.04
2019-02-28T10:32:49.278Z,38.82
2019-02-28T10:35:21.869Z,38.43
2019-02-28T10:37:48.138Z,37.74
2019-02-28T10:40:17.731Z,37.58
2019-02-28T10:42:45.030Z,37.37
2019-02-28T10:45:13.431Z,36.38
2019-02-28T10:47:46.875Z,36.15
2019-02-28T10:50:32.154Z,35.23
2019-02-28T10:52:55.508Z,35.04
2019-02-28T10:55:22.444Z,34.78
2019-02-28T10:57:49.830Z,34.04
2019-02-28T11:00:23.979Z,32.50
2019-02-28T11:02:53.556Z,32.50
2019-02-28T11:05:21.638Z,32.08
2019-02-28T11:07:48.077Z,32.08
2019-02-28T11:10:14.509Z,31.15
2019-02-28T11:12:40.720Z,31.36
2019-02-28T11:15:10.424Z,31.12
2019-02-28T11:17:36.365Z,30.86
2019-02-28T11:20:06.377Z,30.16
2019-02-28T11:22:32.683Z,30.04
2019-02-28T11:25:01.024Z,29.91
2019-02-28T11:27:27.582Z,29.04
2019-02-28T11:29:53.969Z,29.31
2019-02-28T11:32:20.670Z,28.88
2019-02-28T11:34:48.687Z,28.50
2019-02-28T11:37:15.245Z,28.55
2019-02-28T11:39:41.638Z,28.60
2019-02-28T11:42:10.999Z,27.84
2019-02-28T11:44:37.458Z,27.04
2019-02-28T11:47:03.778Z,27.55
2019-02-28T11:49:30.091Z,26.72
2019-02-28T11:51:56.365Z,27.16
2019-02-28T11:54:22.740Z,25.85
2019-02-28T11:56:49.262Z,25.66
2019-02-28T11:59:15.597Z,26.02
2019-02-28T12:01:42.450Z,25.85
2019-02-28T12:04:10.130Z,26.31
2019-02-28T12:06:36.309Z,25.79
2019-02-28T12:09:04.385Z,26.13
2019-02-28T12:11:33.536Z,25.76
2019-02-28T12:14:00.333Z,25.65
2019-02-28T12:16:26.660Z,25.86
2019-02-28T12:18:52.845Z,25.98
2019-02-28T12:21:19.081Z,26.36
2019-02-28T12:23:45.206Z,26.36
2019-02-28T12:26:14.391Z,25.66
2019-02-28T12:28:39.576Z,25.51
2019-02-28T12:31:06.506Z,24.97
2019-02-28T12:33:32.702Z,24.66
2019-02-28T12:35:59.026Z,24.76
2019-02-28T12:38:28.297Z,24.84
2019-02-28T12:40:53.623Z,24.75
2019-02-28T12:43:20.023Z,25.29
2019-02-28T12:45:47.466Z,24.69
2019-02-28T12:48:14.690Z,24.05
2019-02-28T12:50:41.234Z,23.62
2019-02-28T12:53:09.008Z,23.48
2019-02-28T12:55:38.785Z,23.21
2019-02-28T12:58:04.102Z,23.28
2019-02-28T13:00:33.556Z,23.96
2019-02-28T13:02:59.852Z,24.16
2019-02-28T13:05:26.279Z,24.04
2019-02-28T13:07:52.562Z,24.17
2019-02-28T13:10:26.756Z,24.91
2019-02-28T13:12:49.881Z,25.36
2019-02-28T13:15:17.470Z,26.25
2019-02-28T13:17:44.063Z,26.57
2019-02-28T13:22:38.420Z,27.88
2019-02-28T13:25:07.395Z,28.19
2019-02-28T13:27:33.655Z,28.42
2019-02-28T13:29:59.768Z,28.48
2019-02-28T13:32:25.997Z,29.05
2019-02-28T13:34:52.111Z,29.41
2019-02-28T13:37:18.440Z,29.76
2019-02-28T13:39:44.801Z,29.20
2019-02-28T13:42:12.266Z,29.43
2019-02-28T13:44:38.579Z,30.08
2019-02-28T13:47:09.438Z,29.95
2019-02-28T13:49:33.028Z,29.63
2019-02-28T13:51:59.320Z,29.26
2019-02-28T13:54:26.950Z,29.09
2019-02-28T13:56:53.323Z,29.18
2019-02-28T13:59:19.553Z,29.64
2019-02-28T14:01:45.668Z,29.45
2019-02-28T14:04:11.888Z,30.16
2019-02-28T14:06:38.070Z,29.94
2019-02-28T14:09:05.895Z,30.33
2019-02-28T14:11:32.216Z,30.93
2019-02-28T14:13:58.523Z,31.99
2019-02-28T14:16:26.924Z,32.45
2019-02-28T14:18:54.647Z,32.60
2019-02-28T14:21:21.301Z,33.68
2019-02-28T14:23:47.943Z,35.04
2019-02-28T14:26:14.828Z,35.52
2019-02-28T14:28:41.568Z,35.36
2019-02-28T14:31:07.862Z,35.43
2019-02-28T14:33:33.997Z,35.05
2019-02-28T14:36:00.607Z,35.10
2019-02-28T14:38:29.465Z,35.37
2019-02-28T14:40:55.461Z,35.81
2019-02-28T14:43:21.719Z,36.11
2019-02-28T14:45:48.155Z,35.77
2019-02-28T14:48:14.406Z,35.81
2019-02-28T14:50:40.696Z,35.30
2019-02-28T14:53:13.082Z,35.01
2019-02-28T14:55:37.417Z,35.08
2019-02-28T14:58:03.906Z,34.91
2019-02-28T15:00:31.804Z,35.04
2019-02-28T15:03:02.873Z,34.59
2019-02-28T15:05:32.238Z,34.70
2019-02-28T15:07:58.858Z,35.28
2019-02-28T15:10:27.384Z,35.90
2019-02-28T15:12:55.346Z,36.61
2019-02-28T15:15:22.484Z,37.08
2019-02-28T15:17:48.797Z,37.37
2019-02-28T15:20:15.107Z,38.00
2019-02-28T15:22:41.476Z,38.58
2019-02-28T15:25:27.752Z,39.30
2019-02-28T15:27:54.018Z,39.86
2019-02-28T15:30:34.902Z,40.21
2019-02-28T15:33:01.299Z,40.59
2019-02-28T15:35:27.619Z,40.97
2019-02-28T15:37:53.905Z,41.21
2019-02-28T15:40:29.564Z,41.49
2019-02-28T15:42:55.689Z,41.65
2019-02-28T15:45:21.993Z,41.88
2019-02-28T15:47:48.160Z,42.13
2019-02-28T15:50:17.835Z,42.16
2019-02-28T15:52:45.177Z,42.40
2019-02-28T15:55:13.846Z,42.62
2019-02-28T15:57:40.223Z,42.81
2019-02-28T16:00:15.576Z,42.97
2019-02-28T16:02:43.041Z,43.14
2019-02-28T16:05:09.486Z,43.27
2019-02-28T16:07:35.808Z,43.30
2019-02-28T16:10:02.316Z,43.54
2019-02-28T16:12:28.625Z,43.75
2019-02-28T16:14:55.066Z,43.96
2019-02-28T16:17:21.369Z,44.35
2019-02-28T16:19:47.499Z,44.44
2019-02-28T16:22:14.640Z,44.70
2019-02-28T16:24:42.629Z,44.76
2019-02-28T16:27:09.894Z,44.89
2019-02-28T16:29:36.891Z,44.91
2019-02-28T16:32:07.553Z,44.93
2019-02-28T16:34:34.303Z,45.07
2019-02-28T16:37:01.959Z,45.13
2019-02-28T16:39:28.854Z,45.25
2019-02-28T16:41:56.105Z,45.44
2019-02-28T16:44:22.793Z,45.55
2019-02-28T16:46:51.556Z,45.55
2019-02-28T16:49:18.064Z,45.69
2019-02-28T16:51:45.362Z,45.85
2019-02-28T16:54:12.446Z,45.83
2019-02-28T16:56:39.554Z,45.93
2019-02-28T16:59:07.895Z,46.16
2019-02-28T17:01:34.481Z,46.32
2019-02-28T17:04:01.465Z,46.46
2019-02-28T17:06:28.143Z,46.54
2019-02-28T17:08:56.946Z,46.74
2019-02-28T17:11:23.606Z,46.88
2019-02-28T17:13:52.606Z,47.07
2019-02-28T17:16:20.770Z,47.19
2019-02-28T17:18:47.203Z,47.53
2019-02-28T17:21:18.023Z,47.63
2019-02-28T17:23:45.125Z,47.90
2019-02-28T17:26:12.244Z,48.11
2019-02-28T17:28:51.013Z,48.18
2019-02-28T17:31:34.719Z,48.50
2019-02-28T17:34:01.813Z,48.45
2019-02-28T17:36:28.181Z,48.58
2019-02-28T17:38:55.049Z,48.71
2019-02-28T17:41:22.261Z,48.93
2019-02-28T17:44:22.818Z,49.26
2019-02-28T17:46:52.730Z,49.40
2019-02-28T17:49:35.344Z,49.48
2019-02-28T17:52:19.982Z,49.48
2019-02-28T17:55:02.010Z,49.62
2019-02-28T17:57:36.153Z,49.83
2019-02-28T18:00:06.326Z,49.76
2019-02-28T18:02:54.925Z,49.97
2019-02-28T18:05:41.541Z,50.01
2019-02-28T18:08:19.751Z,49.96
2019-02-28T18:11:15.607Z,49.99
2019-02-28T18:14:12.662Z,50.21
2019-02-28T18:16:58.270Z,50.14
2019-02-28T18:19:33.237Z,50.41
2019-02-28T18:22:31.625Z,50.39
2019-02-28T18:25:01.540Z,50.42
2019-02-28T18:27:43.633Z,50.41
2019-02-28T18:30:29.751Z,50.29
2019-02-28T18:32:56.368Z,50.54
2019-02-28T18:35:22.467Z,50.73
2019-02-28T18:37:49.087Z,50.62
2019-02-28T18:40:15.263Z,50.61
2019-02-28T18:42:41.428Z,50.65
2019-02-28T18:45:09.487Z,51.29
2019-02-28T18:47:39.587Z,51.66
2019-02-28T18:50:05.415Z,51.85
2019-02-28T18:52:31.792Z,51.91
2019-02-28T18:55:05.727Z,51.99
2019-02-28T18:57:26.189Z,51.93
2019-02-28T18:59:52.456Z,51.89
2019-02-28T19:02:18.778Z,51.99
2019-02-28T19:04:44.940Z,51.99
2019-02-28T19:07:11.291Z,52.13
2019-02-28T19:09:37.491Z,52.14
2019-02-28T19:12:03.953Z,52.08
2019-02-28T19:14:30.141Z,52.13
2019-02-28T19:16:56.480Z,51.56
2019-02-28T19:19:22.691Z,51.30
2019-02-28T19:21:49.024Z,51.11
2019-02-28T19:24:15.112Z,51.22
2019-02-28T19:26:41.345Z,51.04
2019-02-28T19:29:07.605Z,50.99
2019-02-28T19:31:33.756Z,51.09
2019-02-28T19:33:59.911Z,51.10
2019-02-28T19:36:26.162Z,51.08
2019-02-28T19:38:52.447Z,50.89
2019-02-28T19:41:18.708Z,50.93
2019-02-28T19:43:44.977Z,50.94
2019-02-28T19:46:11.229Z,51.04
2019-02-28T19:48:37.507Z,51.26
2019-02-28T19:51:03.982Z,51.19
2019-02-28T19:53:30.213Z,51.24
2019-02-28T19:55:56.840Z,51.11
2019-02-28T19:58:23.346Z,51.01
2019-02-28T20:00:49.846Z,51.30
2019-02-28T20:03:16.303Z,51.31
2019-02-28T20:05:42.547Z,51.23
2019-02-28T20:08:09.148Z,51.23
2019-02-28T20:10:35.420Z,51.06
2019-02-28T20:13:02.048Z,51.17
2019-02-28T20:15:30.077Z,51.24
2019-02-28T20:17:56.586Z,51.17
2019-02-28T20:20:25.271Z,51.17
2019-02-28T20:22:51.578Z,51.09
2019-02-28T20:25:18.061Z,51.16
2019-02-28T20:27:44.199Z,51.37
2019-02-28T20:30:15.854Z,51.28
2019-02-28T20:32:42.356Z,51.11
2019-02-28T20:35:09.341Z,51.38
2019-02-28T20:37:35.694Z,51.46
2019-02-28T20:40:07.306Z,51.28
2019-02-28T20:42:33.529Z,51.21
2019-02-28T20:44:59.761Z,51.06
2019-02-28T20:47:25.862Z,51.27
2019-02-28T20:49:53.199Z,51.42
2019-02-28T20:52:19.608Z,51.55
2019-02-28T20:54:46.169Z,51.42
2019-02-28T20:57:12.283Z,51.63
2019-02-28T20:59:38.685Z,51.94
2019-02-28T21:02:05.074Z,51.88
2019-02-28T21:04:31.295Z,51.74
2019-02-28T21:06:57.585Z,51.86
2019-02-28T21:09:24.421Z,51.92
2019-02-28T21:11:50.675Z,51.94
2019-02-28T21:14:17.071Z,51.87
2019-02-28T21:16:43.392Z,51.94
2019-02-28T21:19:10.554Z,52.31
2019-02-28T21:21:36.810Z,51.86
2019-02-28T21:24:03.229Z,51.88
2019-02-28T21:26:29.552Z,51.97
2019-02-28T21:28:55.765Z,51.77
2019-02-28T21:31:22.278Z,51.91
2019-02-28T21:33:48.528Z,51.80
2019-02-28T21:36:15.126Z,51.91
2019-02-28T21:38:41.334Z,51.89
2019-02-28T21:41:07.958Z,52.01
2019-02-28T21:43:34.156Z,52.31
2019-02-28T21:46:00.491Z,52.50
2019-02-28T21:48:26.769Z,52.31
2019-02-28T21:50:53.050Z,52.27
2019-02-28T21:53:19.304Z,52.52
2019-02-28T21:55:45.637Z,52.60
2019-02-28T21:58:11.857Z,53.15
2019-02-28T22:00:38.086Z,54.11
2019-02-28T22:03:04.308Z,54.29
2019-02-28T22:05:30.588Z,55.60
2019-02-28T22:07:57.243Z,55.35
2019-02-28T22:10:23.558Z,56.23
2019-02-28T22:12:49.811Z,57.09
2019-02-28T22:15:20.421Z,56.18
2019-02-28T22:17:49.719Z,57.07
2019-02-28T22:20:16.033Z,56.50
2019-02-28T22:22:42.333Z,56.25
2019-02-28T22:25:10.593Z,56.50
2019-02-28T22:27:36.727Z,56.11
2019-02-28T22:30:26.530Z,56.06
2019-02-28T22:32:54.788Z,55.69
2019-02-28T22:35:23.057Z,55.51
2019-02-28T22:37:49.625Z,55.83
2019-02-28T22:40:15.865Z,55.87
2019-02-28T22:42:42.287Z,55.84
2019-02-28T22:45:08.608Z,55.89
2019-02-28T22:47:34.724Z,55.81
2019-02-28T22:50:01.050Z,56.18
2019-02-28T22:52:28.321Z,56.38
2019-02-28T22:54:54.599Z,56.55
2019-02-28T22:57:20.830Z,57.04
2019-02-28T22:59:47.260Z,57.44
2019-02-28T23:02:13.592Z,57.29
2019-02-28T23:04:39.847Z,57.39
2019-02-28T23:07:06.247Z,57.49
2019-02-28T23:09:32.475Z,57.64
2019-02-28T23:11:58.597Z,57.84
2019-02-28T23:14:24.940Z,58.28
2019-02-28T23:16:51.082Z,58.67
2019-02-28T23:19:17.296Z,59.15
2019-02-28T23:21:43.451Z,59.30
2019-02-28T23:24:09.608Z,59.41
2019-02-28T23:26:57.750Z,60.18
2019-02-28T23:29:25.526Z,60.63
2019-02-28T23:31:58.593Z,61.08
2019-02-28T23:34:28.491Z,61.76
2019-02-28T23:36:54.605Z,62.59
2019-02-28T23:39:20.835Z,62.70
2019-02-28T23:41:46.939Z,62.63
2019-02-28T23:44:13.241Z,62.87
2019-02-28T23:46:39.420Z,62.65
2019-02-28T23:49:05.669Z,62.57
2019-02-28T23:51:32.256Z,62.80
2019-02-28T23:53:58.605Z,62.97
2019-02-28T23:56:24.767Z,62.76
2019-02-28T23:58:50.951Z,63.05
